Time;durP1;ratioP1;P1;durP2;ratioP2;P2;SDS_P1;SDS_P2;PMS_P1;PMS_P2;Temp;Humidity;BMP_temperature;BMP_pressure;BME280_temperature;BME280_humidity;BME280_pressure;Samples;Min_cycle;Max_cycle;Signal;HPM_P1;HPM_P2
2022/09/10 00:00:44;;;;;;;2.40;0.80;;;18.50;99.90;;;;;;7380167;19;20843;-47
2022/09/10 00:03:14;;;;;;;1.43;0.70;;;18.60;99.90;;;;;;7381258;19;20964;-47
2022/09/10 00:05:46;;;;;;;1.50;1.00;;;18.60;99.90;;;;;;7381654;19;20448;-47
2022/09/10 00:08:17;;;;;;;1.10;0.77;;;18.60;99.90;;;;;;7380079;19;20394;-47
2022/09/10 00:10:51;;;;;;;3.27;1.30;;;18.40;99.90;;;;;;7388652;19;20384;-47
2022/09/10 00:13:22;;;;;;;2.30;0.73;;;18.30;99.90;;;;;;7390608;19;20373;-47
2022/09/10 00:15:53;;;;;;;3.03;0.87;;;18.30;99.90;;;;;;7388839;19;20377;-47
2022/09/10 00:18:24;;;;;;;2.87;0.90;;;18.30;99.90;;;;;;7389432;19;20399;-47
2022/09/10 00:20:55;;;;;;;3.40;1.00;;;18.20;99.90;;;;;;7388668;19;20878;-47
2022/09/10 00:23:26;;;;;;;1.63;0.73;;;18.20;99.90;;;;;;7389142;19;21032;-47
2022/09/10 00:25:59;;;;;;;1.70;0.60;;;18.00;99.90;;;;;;7390874;19;20830;-47
2022/09/10 00:28:29;;;;;;;4.03;1.10;;;17.90;99.90;;;;;;7389272;19;20372;-47
2022/09/10 00:30:59;;;;;;;1.90;0.60;;;17.80;99.90;;;;;;7386268;19;20418;-47
2022/09/10 00:33:28;;;;;;;3.57;1.23;;;17.80;99.90;;;;;;7389079;19;20376;-47
2022/09/10 00:36:00;;;;;;;0.80;0.60;;;17.70;99.90;;;;;;7386914;19;20376;-46
2022/09/10 00:38:30;;;;;;;1.50;0.50;;;17.70;99.90;;;;;;7387817;19;20364;-46
2022/09/10 00:41:07;;;;;;;0.93;0.60;;;17.80;99.90;;;;;;7388460;19;20953;-47
2022/09/10 00:43:54;;;;;;;0.80;0.50;;;17.90;98.50;;;;;;7390427;19;20894;-47
2022/09/10 00:46:46;;;;;;;1.87;0.77;;;17.80;99.90;;;;;;7387460;19;20490;-47
2022/09/10 00:49:19;;;;;;;1.17;0.57;;;17.80;99.90;;;;;;7387213;19;20416;-47
2022/09/10 00:51:50;;;;;;;0.80;0.60;;;17.70;99.90;;;;;;7385204;19;20924;-55
2022/09/10 00:54:23;;;;;;;0.77;0.50;;;17.80;99.90;;;;;;7387908;19;20383;-54
2022/09/10 00:56:58;;;;;;;2.10;0.50;;;17.80;99.90;;;;;;7388827;19;20384;-54
2022/09/10 00:59:29;;;;;;;0.60;0.53;;;17.80;99.90;;;;;;7388188;19;20380;-54
2022/09/10 01:01:59;;;;;;;2.63;0.67;;;17.70;99.90;;;;;;7385121;19;20428;-54
2022/09/10 01:04:31;;;;;;;3.27;0.57;;;17.60;99.90;;;;;;7387508;19;20380;-54
2022/09/10 01:07:02;;;;;;;1.03;0.50;;;17.60;99.90;;;;;;7386719;19;20387;-54
2022/09/10 01:09:31;;;;;;;2.40;0.80;;;17.70;99.90;;;;;;7383339;19;20385;-54
2022/09/10 01:12:18;;;;;;;0.97;0.50;;;17.80;99.90;;;;;;7383450;19;20380;-54
2022/09/10 01:15:04;;;;;;;1.10;0.50;;;18.00;99.90;;;;;;7387715;19;21000;-54
2022/09/10 01:17:44;;;;;;;0.77;0.43;;;18.00;99.90;;;;;;7386380;19;20731;-54
2022/09/10 01:20:42;;;;;;;0.70;0.60;;;17.90;99.90;;;;;;7383921;19;20383;-54
2022/09/10 01:23:44;;;;;;;0.73;0.50;;;18.00;99.90;;;;;;7386657;19;20917;-54
2022/09/10 01:26:29;;;;;;;1.77;0.60;;;18.00;99.90;;;;;;7384491;19;20407;-54
2022/09/10 01:29:07;;;;;;;0.70;0.53;;;18.20;99.90;;;;;;7386596;19;20471;-54
2022/09/10 01:31:48;;;;;;;2.87;0.70;;;18.20;99.90;;;;;;7384578;19;20748;-47
2022/09/10 01:34:21;;;;;;;1.73;0.60;;;18.20;99.90;;;;;;7386143;19;20376;-47
2022/09/10 01:36:55;;;;;;;1.63;0.60;;;17.90;99.90;;;;;;7385678;19;20377;-47
2022/09/10 01:39:26;;;;;;;2.87;0.73;;;17.70;99.90;;;;;;7385467;19;20383;-47
2022/09/10 01:41:57;;;;;;;2.70;0.60;;;17.50;99.90;;;;;;7385552;19;20386;-46
2022/09/10 01:44:47;;;;;;;1.43;0.70;;;17.30;99.90;;;;;;7385252;19;20928;-47
2022/09/10 01:47:30;;;;;;;1.63;0.63;;;17.30;99.90;;;;;;7386784;19;20392;-46
2022/09/10 01:50:13;;;;;;;2.00;0.60;;;17.30;99.90;;;;;;7386194;19;20372;-47
2022/09/10 01:52:51;;;;;;;1.57;0.60;;;17.40;99.90;;;;;;7385431;19;20431;-47
2022/09/10 01:55:34;;;;;;;2.33;0.80;;;17.50;99.90;;;;;;7381779;19;20417;-47
2022/09/10 01:58:15;;;;;;;1.60;0.60;;;17.20;99.90;;;;;;7384607;19;20940;-46
2022/09/10 02:00:57;;;;;;;1.27;0.63;;;17.10;99.90;;;;;;7383580;19;20846;-54
2022/09/10 02:03:28;;;;;;;2.30;0.50;;;17.00;99.90;;;;;;7383984;19;20476;-54
2022/09/10 02:05:59;;;;;;;1.70;1.10;;;17.10;99.90;;;;;;7385213;19;20388;-54
2022/09/10 02:08:32;;;;;;;2.93;0.63;;;17.10;99.90;;;;;;7382871;19;20392;-55
2022/09/10 02:11:06;;;;;;;1.67;0.70;;;17.00;99.90;;;;;;7384039;19;20405;-54
2022/09/10 02:13:41;;;;;;;2.57;0.90;;;16.90;99.90;;;;;;7385015;19;20383;-54
2022/09/10 02:16:39;;;;;;;1.53;0.70;;;17.00;99.90;;;;;;7383508;19;20411;-56
2022/09/10 02:19:09;;;;;;;2.43;1.00;;;17.20;99.90;;;;;;7383536;19;20380;-54
2022/09/10 02:21:40;;;;;;;1.03;0.80;;;17.30;99.90;;;;;;7383702;19;20395;-54
2022/09/10 02:24:12;;;;;;;1.63;0.80;;;17.30;99.90;;;;;;7383492;19;20917;-55
2022/09/10 02:26:46;;;;;;;0.90;0.80;;;17.40;99.90;;;;;;7382596;19;20372;-54
2022/09/10 02:29:18;;;;;;;1.73;0.70;;;17.60;99.90;;;;;;7383246;19;20379;-55
2022/09/10 02:31:50;;;;;;;3.93;1.23;;;17.60;99.90;;;;;;7383216;19;20930;-54
2022/09/10 02:34:21;;;;;;;1.50;0.83;;;17.70;99.90;;;;;;7380638;19;20372;-54
2022/09/10 02:36:52;;;;;;;1.50;0.70;;;17.60;99.90;;;;;;7383534;19;20411;-54
2022/09/10 02:39:21;;;;;;;2.43;1.00;;;17.60;99.90;;;;;;7385664;19;20372;-54
2022/09/10 02:41:51;;;;;;;1.90;1.07;;;17.50;99.90;;;;;;7385632;19;20419;-54
2022/09/10 02:44:20;;;;;;;3.03;0.87;;;17.30;99.90;;;;;;7382827;19;20375;-56
2022/09/10 02:46:52;;;;;;;2.30;0.90;;;17.20;99.90;;;;;;7384488;19;21074;-54
2022/09/10 02:49:24;;;;;;;2.63;0.77;;;17.30;99.90;;;;;;7383207;19;20398;-54
2022/09/10 02:51:54;;;;;;;3.67;1.10;;;17.40;99.90;;;;;;7381533;19;20400;-54
2022/09/10 02:54:23;;;;;;;1.30;0.90;;;17.30;99.90;;;;;;7382473;19;20373;-54
2022/09/10 02:56:52;;;;;;;2.53;1.27;;;17.40;99.90;;;;;;7382771;19;20910;-54
2022/09/10 02:59:26;;;;;;;1.43;0.90;;;17.30;99.90;;;;;;7382955;19;20764;-54
2022/09/10 03:01:58;;;;;;;0.97;0.87;;;17.30;99.90;;;;;;7379759;19;20436;-47
2022/09/10 03:04:27;;;;;;;3.43;1.33;;;17.40;99.90;;;;;;7383185;19;20372;-47
2022/09/10 03:06:57;;;;;;;2.70;1.00;;;17.50;99.90;;;;;;7382740;19;20753;-47
2022/09/10 03:09:27;;;;;;;0.97;0.87;;;17.50;99.90;;;;;;7382561;19;20396;-47
2022/09/10 03:11:58;;;;;;;1.80;0.70;;;17.50;99.90;;;;;;7381279;19;20382;-47
2022/09/10 03:14:29;;;;;;;2.00;0.60;;;17.50;99.90;;;;;;7383483;19;20380;-47
2022/09/10 03:17:01;;;;;;;2.10;0.77;;;17.60;99.90;;;;;;7382098;19;20376;-47
2022/09/10 03:19:31;;;;;;;1.83;0.77;;;17.50;99.90;;;;;;7383463;19;20372;-47
2022/09/10 03:22:04;;;;;;;1.57;0.83;;;17.50;99.90;;;;;;7382660;19;20368;-47
2022/09/10 03:24:35;;;;;;;2.53;1.10;;;17.30;99.90;;;;;;7383758;19;20417;-47
2022/09/10 03:27:08;;;;;;;3.20;0.83;;;17.20;99.90;;;;;;7382566;19;20912;-46
2022/09/10 03:29:38;;;;;;;0.63;0.50;;;17.00;99.90;;;;;;7383211;19;20380;-47
2022/09/10 03:32:10;;;;;;;2.80;0.80;;;17.10;99.90;;;;;;7380204;19;20381;-47
2022/09/10 03:34:41;;;;;;;0.80;0.70;;;17.20;99.90;;;;;;7382391;19;20384;-47
2022/09/10 03:37:11;;;;;;;7.17;1.30;;;17.10;99.90;;;;;;7382487;19;20379;-47
2022/09/10 03:39:40;;;;;;;1.23;0.90;;;17.00;99.90;;;;;;7384393;19;20379;-54
2022/09/10 03:42:11;;;;;;;1.10;1.00;;;17.00;99.90;;;;;;7381688;19;20758;-54
2022/09/10 03:44:40;;;;;;;2.07;1.00;;;17.10;99.90;;;;;;7388458;19;20391;-54
2022/09/10 03:47:13;;;;;;;1.73;0.73;;;17.20;99.90;;;;;;7389253;19;20380;-53
2022/09/10 03:49:42;;;;;;;1.50;0.83;;;17.20;99.90;;;;;;7389711;19;20387;-54
2022/09/10 03:52:13;;;;;;;1.63;0.80;;;17.10;99.90;;;;;;7387570;19;20451;-54
2022/09/10 03:54:44;;;;;;;3.53;1.10;;;17.00;99.90;;;;;;7390379;19;20393;-54
2022/09/10 03:57:14;;;;;;;3.03;1.00;;;16.90;99.90;;;;;;7388689;19;20402;-54
2022/09/10 03:59:44;;;;;;;2.90;0.87;;;16.90;99.90;;;;;;7389474;19;20370;-54
2022/09/10 04:02:17;;;;;;;1.30;0.83;;;16.80;99.90;;;;;;7385218;19;20985;-54
2022/09/10 04:04:50;;;;;;;2.67;0.83;;;16.70;99.90;;;;;;7388704;19;20392;-54
2022/09/10 04:07:20;;;;;;;1.17;1.00;;;16.80;99.90;;;;;;7387564;19;20364;-54
2022/09/10 04:09:51;;;;;;;1.70;0.83;;;16.70;99.90;;;;;;7389164;19;20378;-53
2022/09/10 04:12:21;;;;;;;2.57;1.00;;;16.70;99.90;;;;;;7387020;19;20384;-53
2022/09/10 04:14:52;;;;;;;3.23;0.80;;;16.90;99.90;;;;;;7389565;19;20412;-54
2022/09/10 04:17:27;;;;;;;3.73;1.10;;;16.90;99.90;;;;;;7388563;19;20356;-54
2022/09/10 04:19:56;;;;;;;1.67;0.70;;;16.90;99.90;;;;;;7389154;19;20376;-55
2022/09/10 04:22:27;;;;;;;2.33;1.00;;;17.00;99.90;;;;;;7388740;19;20376;-54
2022/09/10 04:24:56;;;;;;;4.80;0.90;;;17.10;99.90;;;;;;7388391;19;20383;-54
2022/09/10 04:27:28;;;;;;;1.30;0.70;;;17.20;99.90;;;;;;7388250;19;20384;-54
2022/09/10 04:29:58;;;;;;;2.83;0.63;;;17.00;99.90;;;;;;7388513;19;20383;-54
2022/09/10 04:32:31;;;;;;;0.70;0.40;;;17.10;99.90;;;;;;7386575;19;20413;-54
2022/09/10 04:35:01;;;;;;;0.60;0.60;;;17.00;99.90;;;;;;7387772;19;20561;-54
2022/09/10 04:37:31;;;;;;;2.80;0.70;;;16.90;99.90;;;;;;7388504;19;20395;-54
2022/09/10 04:40:01;;;;;;;2.07;0.87;;;16.90;99.90;;;;;;7388727;19;20439;-54
2022/09/10 04:42:31;;;;;;;4.70;0.63;;;17.00;99.90;;;;;;7386977;19;20372;-54
2022/09/10 04:45:00;;;;;;;0.90;0.57;;;17.10;99.90;;;;;;7388045;19;20364;-54
2022/09/10 04:47:33;;;;;;;2.30;0.77;;;17.10;99.90;;;;;;7388050;19;20372;-55
2022/09/10 04:50:02;;;;;;;2.13;1.27;;;17.20;99.90;;;;;;7387970;19;20364;-54
2022/09/10 04:52:32;;;;;;;1.53;0.70;;;17.20;99.90;;;;;;7386640;19;20392;-54
2022/09/10 04:55:02;;;;;;;0.80;0.50;;;17.20;99.90;;;;;;7387191;19;20377;-54
2022/09/10 04:57:31;;;;;;;1.07;0.60;;;17.20;99.90;;;;;;7386920;19;20391;-54
2022/09/10 05:00:00;;;;;;;0.70;0.57;;;17.20;99.90;;;;;;7388445;19;20376;-54
2022/09/10 05:02:33;;;;;;;1.10;0.83;;;17.30;99.90;;;;;;7384672;19;20432;-54
2022/09/10 05:05:05;;;;;;;2.77;0.80;;;17.50;99.90;;;;;;7386785;19;20409;-54
2022/09/10 05:07:34;;;;;;;0.90;0.80;;;17.60;99.90;;;;;;7386261;19;20455;-54
2022/09/10 05:10:05;;;;;;;3.90;0.70;;;17.70;99.90;;;;;;7388020;19;20816;-47
2022/09/10 05:12:35;;;;;;;1.77;0.70;;;17.80;99.90;;;;;;7385475;19;20439;-47
2022/09/10 05:15:05;;;;;;;2.37;1.10;;;17.80;99.90;;;;;;7389313;19;20414;-49
2022/09/10 05:17:39;;;;;;;1.47;0.60;;;17.70;99.90;;;;;;7385977;19;20491;-47
2022/09/10 05:20:11;;;;;;;0.97;0.80;;;17.80;99.90;;;;;;7386782;19;21222;-47
2022/09/10 05:22:48;;;;;;;0.80;0.70;;;17.80;99.90;;;;;;7386960;19;20435;-47
2022/09/10 05:25:18;;;;;;;1.30;0.70;;;17.70;99.90;;;;;;7386227;19;20905;-48
2022/09/10 05:27:48;;;;;;;1.47;0.70;;;17.70;99.90;;;;;;7385657;19;20471;-47
2022/09/10 05:30:21;;;;;;;1.40;0.67;;;17.50;99.90;;;;;;7388493;19;20448;-47
2022/09/10 05:32:55;;;;;;;1.70;0.57;;;17.50;99.90;;;;;;7384960;19;20444;-47
2022/09/10 05:35:25;;;;;;;0.50;0.50;;;17.60;99.90;;;;;;7386324;19;20376;-47
2022/09/10 05:37:55;;;;;;;1.50;0.80;;;17.70;99.90;;;;;;7388351;19;20380;-47
2022/09/10 05:40:24;;;;;;;2.00;0.80;;;17.70;99.90;;;;;;7386196;19;20384;-55
2022/09/10 05:42:55;;;;;;;0.60;0.57;;;17.80;99.90;;;;;;7385475;19;20753;-54
2022/09/10 05:45:25;;;;;;;1.40;0.60;;;17.80;99.90;;;;;;7387226;19;20368;-54
2022/09/10 05:47:58;;;;;;;0.60;0.50;;;17.80;99.90;;;;;;7385339;19;20388;-55
2022/09/10 05:50:29;;;;;;;1.13;0.70;;;17.80;99.90;;;;;;7385628;19;20372;-55
2022/09/10 05:52:59;;;;;;;1.20;0.63;;;17.70;99.90;;;;;;7384966;19;20376;-54
2022/09/10 05:55:31;;;;;;;2.03;0.90;;;17.70;99.90;;;;;;7386529;19;20722;-55
2022/09/10 05:58:04;;;;;;;2.70;0.80;;;17.40;99.90;;;;;;7387332;19;20909;-54
2022/09/10 06:00:38;;;;;;;1.37;0.90;;;17.40;99.90;;;;;;7384198;19;20465;-54
2022/09/10 06:03:10;;;;;;;2.97;1.00;;;17.50;99.90;;;;;;7385043;19;20368;-54
2022/09/10 06:05:50;;;;;;;0.77;0.77;;;17.50;99.90;;;;;;7384204;19;20914;-56
2022/09/10 06:08:24;;;;;;;1.60;0.60;;;17.70;99.90;;;;;;7383980;19;20801;-54
2022/09/10 06:10:59;;;;;;;1.10;0.73;;;17.70;99.90;;;;;;7385089;19;20395;-54
2022/09/10 06:13:31;;;;;;;0.80;0.60;;;17.70;99.90;;;;;;7383526;19;20372;-54
2022/09/10 06:16:01;;;;;;;1.60;0.90;;;17.80;99.90;;;;;;7383677;19;20969;-55
2022/09/10 06:18:34;;;;;;;1.53;0.53;;;18.00;99.90;;;;;;7385278;19;20368;-55
2022/09/10 06:21:09;;;;;;;1.37;0.77;;;18.00;99.90;;;;;;7383369;19;20380;-55
2022/09/10 06:23:40;;;;;;;1.27;0.73;;;18.00;99.90;;;;;;7386216;19;20400;-55
2022/09/10 06:26:15;;;;;;;1.53;0.80;;;18.00;99.90;;;;;;7383995;19;21054;-54
2022/09/10 06:28:46;;;;;;;4.10;0.70;;;17.90;99.90;;;;;;7383911;19;20379;-54
2022/09/10 06:31:16;;;;;;;2.10;1.20;;;18.00;99.90;;;;;;7385419;19;20364;-54
2022/09/10 06:33:51;;;;;;;0.90;0.60;;;18.00;99.90;;;;;;7382276;19;20413;-55
2022/09/10 06:36:27;;;;;;;1.70;0.70;;;18.10;99.90;;;;;;7383817;19;20506;-55
2022/09/10 06:38:57;;;;;;;1.90;0.70;;;18.00;99.90;;;;;;7384416;19;20934;-54
2022/09/10 06:41:29;;;;;;;1.17;0.60;;;17.90;99.90;;;;;;7383455;19;20373;-47
2022/09/10 06:44:10;;;;;;;0.80;0.60;;;17.70;99.90;;;;;;7383471;19;20484;-46
2022/09/10 06:46:45;;;;;;;1.17;0.47;;;17.60;99.90;;;;;;7384646;19;20485;-47
2022/09/10 06:49:20;;;;;;;0.97;0.53;;;17.60;99.90;;;;;;7383416;19;20393;-47
2022/09/10 06:51:51;;;;;;;1.73;0.77;;;17.70;99.90;;;;;;7383590;19;20384;-47
2022/09/10 06:54:21;;;;;;;1.57;0.80;;;17.90;99.90;;;;;;7384023;19;20368;-47
2022/09/10 06:56:51;;;;;;;1.90;0.80;;;18.00;99.90;;;;;;7383909;19;20786;-47
2022/09/10 06:59:21;;;;;;;0.90;0.80;;;18.10;99.90;;;;;;7383585;19;20475;-47
2022/09/10 07:01:51;;;;;;;1.70;0.77;;;18.20;99.90;;;;;;7381375;19;20420;-47
2022/09/10 07:04:25;;;;;;;1.47;0.70;;;18.20;99.90;;;;;;7383161;19;20368;-47
2022/09/10 07:06:58;;;;;;;1.23;0.70;;;18.50;99.90;;;;;;7383092;19;20387;-47
2022/09/10 07:09:28;;;;;;;1.50;0.77;;;18.60;99.90;;;;;;7380982;19;20405;-47
2022/09/10 07:12:00;;;;;;;0.93;0.60;;;18.60;99.90;;;;;;7383079;19;20380;-55
2022/09/10 07:14:33;;;;;;;1.13;0.53;;;18.50;99.90;;;;;;7383190;19;20930;-54
2022/09/10 07:17:07;;;;;;;1.67;0.87;;;18.50;99.90;;;;;;7382366;19;20378;-55
2022/09/10 07:19:42;;;;;;;4.73;0.60;;;18.40;99.90;;;;;;7388434;19;20435;-55
2022/09/10 07:22:22;;;;;;;1.67;0.60;;;18.60;99.90;;;;;;7391244;19;20380;-55
2022/09/10 07:24:54;;;;;;;1.80;0.50;;;18.50;99.90;;;;;;7390681;19;20375;-55
2022/09/10 07:27:42;;;;;;;4.13;1.70;;;18.50;99.90;;;;;;7392085;19;20681;-55
2022/09/10 07:30:13;;;;;;;1.20;0.80;;;18.60;99.90;;;;;;7391105;19;20414;-55
2022/09/10 07:32:44;;;;;;;1.90;0.83;;;18.50;99.90;;;;;;7389409;19;20380;-55
2022/09/10 07:35:21;;;;;;;1.10;0.63;;;18.50;99.90;;;;;;7390765;19;20383;-55
2022/09/10 07:37:50;;;;;;;4.10;0.90;;;18.70;99.90;;;;;;7390781;19;20908;-55
2022/09/10 07:40:22;;;;;;;0.60;0.57;;;18.90;99.90;;;;;;7389276;19;20885;-55
2022/09/10 07:42:57;;;;;;;1.20;0.60;;;19.10;99.90;;;;;;7389722;19;20405;-55
2022/09/10 07:45:29;;;;;;;4.00;0.80;;;19.20;99.90;;;;;;7389323;19;20380;-55
2022/09/10 07:47:58;;;;;;;2.77;0.87;;;19.10;98.80;;;;;;7389808;19;20376;-55
2022/09/10 07:50:30;;;;;;;1.13;0.63;;;18.90;99.20;;;;;;7388747;19;20372;-55
2022/09/10 07:53:00;;;;;;;2.50;0.70;;;18.80;99.90;;;;;;7388630;19;20388;-55
2022/09/10 07:55:30;;;;;;;1.23;0.60;;;18.70;99.90;;;;;;7389421;19;20469;-56
2022/09/10 07:58:01;;;;;;;0.93;0.50;;;18.90;99.90;;;;;;7390244;19;20399;-55
2022/09/10 08:00:33;;;;;;;2.20;0.60;;;19.00;99.80;;;;;;7387979;19;20436;-55
2022/09/10 08:03:08;;;;;;;0.50;0.50;;;19.20;99.70;;;;;;7390111;19;20925;-55
2022/09/10 08:05:41;;;;;;;0.80;0.60;;;19.30;97.10;;;;;;7388713;19;20430;-55
2022/09/10 08:08:12;;;;;;;1.77;0.77;;;19.30;97.80;;;;;;7388490;19;20387;-55
2022/09/10 08:10:41;;;;;;;2.83;2.20;;;19.20;98.60;;;;;;7389408;19;20401;-47
2022/09/10 08:13:11;;;;;;;2.40;0.60;;;19.40;97.90;;;;;;7388114;19;20452;-47
2022/09/10 08:15:44;;;;;;;1.47;0.60;;;19.30;97.20;;;;;;7389192;19;20376;-48
2022/09/10 08:18:14;;;;;;;1.83;0.60;;;19.50;96.10;;;;;;7388956;19;20376;-47
2022/09/10 08:20:46;;;;;;;0.93;0.60;;;19.60;95.20;;;;;;7388833;19;20740;-47
2022/09/10 08:23:16;;;;;;;1.93;0.73;;;19.80;95.20;;;;;;7388167;19;20486;-47
2022/09/10 08:25:52;;;;;;;3.03;0.67;;;20.00;92.60;;;;;;7388629;19;20531;-47
2022/09/10 08:28:22;;;;;;;0.80;0.67;;;20.20;92.60;;;;;;7388890;19;20390;-47
2022/09/10 08:30:59;;;;;;;1.27;0.70;;;20.20;92.30;;;;;;7386907;19;20813;-48
2022/09/10 08:33:30;;;;;;;0.93;0.47;;;20.30;90.50;;;;;;7387143;19;20372;-47
2022/09/10 08:36:06;;;;;;;1.30;0.50;;;20.20;90.10;;;;;;7388535;19;20387;-47
2022/09/10 08:38:40;;;;;;;0.60;0.40;;;20.20;89.50;;;;;;7387523;19;20372;-48
2022/09/10 08:41:13;;;;;;;1.33;0.80;;;20.40;88.10;;;;;;7388820;19;20930;-47
2022/09/10 08:43:50;;;;;;;2.37;0.60;;;20.50;86.50;;;;;;7387968;19;20957;-47
2022/09/10 08:46:25;;;;;;;1.23;0.40;;;20.60;85.00;;;;;;7387812;19;20380;-48
2022/09/10 08:49:08;;;;;;;3.57;1.00;;;20.70;85.70;;;;;;7387970;19;20931;-48
2022/09/10 08:51:45;;;;;;;2.17;0.60;;;20.90;84.90;;;;;;7387451;19;20411;-48
2022/09/10 08:54:19;;;;;;;2.30;0.50;;;21.30;80.90;;;;;;7386140;19;20401;-48
2022/09/10 08:56:50;;;;;;;2.80;1.80;;;21.40;78.50;;;;;;7386466;19;20382;-50
2022/09/10 08:59:25;;;;;;;1.90;0.40;;;21.40;77.10;;;;;;7387346;19;21119;-48
2022/09/10 09:01:59;;;;;;;1.60;0.50;;;21.40;76.80;;;;;;7384475;19;20443;-48
2022/09/10 09:04:38;;;;;;;1.20;0.50;;;21.40;74.80;;;;;;7387069;19;20376;-48
2022/09/10 09:07:14;;;;;;;1.80;0.47;;;21.50;74.50;;;;;;7386414;19;20785;-48
2022/09/10 09:09:47;;;;;;;1.10;0.50;;;22.10;74.00;;;;;;7384293;19;20434;-48
2022/09/10 09:12:28;;;;;;;1.73;0.70;;;22.50;69.60;;;;;;7386550;19;20372;-49
2022/09/10 09:15:10;;;;;;;1.70;0.70;;;22.80;65.80;;;;;;7383848;19;20375;-48
2022/09/10 09:17:58;;;;;;;2.37;0.90;;;22.60;64.90;;;;;;7386538;19;20977;-49
2022/09/10 09:20:40;;;;;;;2.40;0.80;;;22.40;66.40;;;;;;7387059;19;20377;-48
2022/09/10 09:23:21;;;;;;;1.00;0.50;;;22.10;67.70;;;;;;7385724;19;20785;-49
2022/09/10 09:25:55;;;;;;;2.07;0.80;;;21.90;68.10;;;;;;7386477;19;20959;-48
2022/09/10 09:28:35;;;;;;;1.40;0.70;;;21.90;68.90;;;;;;7386991;19;20419;-48
2022/09/10 09:31:11;;;;;;;2.30;1.00;;;21.60;68.20;;;;;;7387196;19;21694;-48
2022/09/10 09:33:44;;;;;;;1.53;0.80;;;21.40;67.20;;;;;;7385618;19;20392;-48
2022/09/10 09:36:19;;;;;;;1.17;0.50;;;21.40;67.30;;;;;;7386616;19;20388;-48
2022/09/10 09:38:54;;;;;;;5.23;1.10;;;21.50;67.90;;;;;;7384917;19;20371;-48
2022/09/10 09:41:31;;;;;;;2.90;0.70;;;21.60;67.40;;;;;;7383878;19;20364;-48
2022/09/10 09:44:07;;;;;;;2.67;0.77;;;21.50;67.30;;;;;;7384756;19;20386;-48
2022/09/10 09:46:37;;;;;;;2.03;0.70;;;21.50;66.50;;;;;;7385800;19;20922;-48
2022/09/10 09:49:15;;;;;;;2.30;0.77;;;21.30;67.90;;;;;;7384148;19;20373;-48
2022/09/10 09:51:50;;;;;;;2.70;0.80;;;21.30;68.50;;;;;;7386336;19;20945;-56
2022/09/10 09:54:26;;;;;;;1.87;1.07;;;21.20;69.10;;;;;;7386413;19;20388;-56
2022/09/10 09:57:00;;;;;;;5.27;0.80;;;21.20;69.20;;;;;;7388026;19;20383;-56
2022/09/10 09:59:33;;;;;;;1.60;0.67;;;21.30;68.80;;;;;;7386454;19;20897;-56
2022/09/10 10:02:15;;;;;;;1.03;0.67;;;21.40;69.00;;;;;;7384579;19;20802;-56
2022/09/10 10:04:56;;;;;;;2.60;1.20;;;21.30;67.50;;;;;;7386151;19;20977;-56
2022/09/10 10:07:31;;;;;;;3.87;1.00;;;21.20;66.60;;;;;;7384463;19;20388;-56
2022/09/10 10:10:06;;;;;;;6.30;0.90;;;21.40;66.70;;;;;;7384799;19;20378;-56
2022/09/10 10:12:38;;;;;;;2.90;0.83;;;21.40;66.40;;;;;;7385033;19;21212;-56
2022/09/10 10:15:36;;;;;;;1.37;0.87;;;21.20;65.90;;;;;;7381955;19;20459;-56
2022/09/10 10:18:30;;;;;;;3.50;0.80;;;21.20;66.80;;;;;;7385822;19;20376;-55
2022/09/10 10:21:15;;;;;;;1.87;0.77;;;21.20;66.80;;;;;;7385695;19;20926;-56
2022/09/10 10:23:45;;;;;;;3.23;0.90;;;21.30;66.60;;;;;;7386381;19;20387;-56
2022/09/10 10:26:29;;;;;;;4.03;0.90;;;21.30;67.30;;;;;;7385265;19;20401;-56
2022/09/10 10:29:02;;;;;;;2.47;0.50;;;21.60;66.20;;;;;;7386230;19;20384;-56
2022/09/10 10:31:39;;;;;;;2.37;1.50;;;21.30;66.30;;;;;;7385913;19;20472;-54
2022/09/10 10:34:40;;;;;;;1.10;0.60;;;21.50;66.00;;;;;;7384516;19;20372;-56
2022/09/10 10:37:16;;;;;;;1.23;0.80;;;21.50;66.00;;;;;;7385586;19;20376;-56
2022/09/10 10:40:14;;;;;;;1.90;1.10;;;21.70;66.60;;;;;;7385381;19;20372;-55
2022/09/10 10:42:54;;;;;;;1.73;1.30;;;21.80;65.60;;;;;;7383801;19;20391;-56
2022/09/10 10:45:38;;;;;;;1.10;0.60;;;21.90;65.10;;;;;;7384335;19;20384;-55
2022/09/10 10:48:13;;;;;;;2.47;1.10;;;22.20;64.20;;;;;;7385928;19;20376;-56
2022/09/10 10:50:50;;;;;;;1.77;0.70;;;22.60;63.20;;;;;;7385923;19;20376;-57
2022/09/10 10:53:42;;;;;;;1.00;0.60;;;23.00;61.00;;;;;;7384530;19;20380;-56
2022/09/10 10:56:19;;;;;;;1.23;0.63;;;23.20;60.80;;;;;;7384917;19;20380;-56
2022/09/10 10:59:22;;;;;;;2.80;0.60;;;23.40;59.20;;;;;;7385432;19;20404;-56
2022/09/10 11:01:57;;;;;;;2.57;0.90;;;23.50;58.30;;;;;;7383384;19;20471;-56
2022/09/10 11:04:33;;;;;;;2.47;0.50;;;23.80;58.20;;;;;;7385073;19;20388;-56
2022/09/10 11:07:11;;;;;;;2.83;1.47;;;23.80;57.60;;;;;;7383617;19;21194;-56
2022/09/10 11:09:45;;;;;;;1.40;0.87;;;23.60;57.00;;;;;;7381619;19;20399;-57
2022/09/10 11:12:20;;;;;;;2.80;0.87;;;23.50;56.80;;;;;;7382274;19;20380;-57
2022/09/10 11:14:56;;;;;;;4.07;0.90;;;23.70;56.50;;;;;;7381161;19;20426;-56
2022/09/10 11:17:33;;;;;;;1.33;0.70;;;24.00;55.50;;;;;;7384807;19;20726;-56
2022/09/10 11:20:11;;;;;;;1.63;0.60;;;24.70;54.00;;;;;;7383550;19;20379;-49
2022/09/10 11:22:46;;;;;;;1.40;0.77;;;24.90;53.20;;;;;;7381956;19;20425;-49
2022/09/10 11:25:21;;;;;;;1.60;0.70;;;25.30;52.00;;;;;;7384605;19;20373;-46
2022/09/10 11:27:54;;;;;;;1.27;1.13;;;25.60;50.90;;;;;;7384303;19;20380;-48
2022/09/10 11:30:26;;;;;;;2.60;0.80;;;26.50;50.00;;;;;;7382651;19;20380;-48
2022/09/10 11:32:59;;;;;;;2.90;1.03;;;27.10;48.20;;;;;;7382013;19;20416;-48
2022/09/10 11:35:35;;;;;;;1.60;0.57;;;27.50;46.80;;;;;;7379317;19;20443;-48
2022/09/10 11:38:15;;;;;;;1.67;0.60;;;27.00;47.50;;;;;;7381766;19;20372;-48
2022/09/10 11:40:52;;;;;;;1.77;0.80;;;26.30;47.80;;;;;;7383489;19;20404;-48
2022/09/10 11:43:31;;;;;;;1.33;0.80;;;25.50;48.90;;;;;;7381785;19;20380;-48
2022/09/10 11:46:09;;;;;;;2.83;0.93;;;25.00;50.20;;;;;;7381784;19;20388;-48
2022/09/10 11:48:44;;;;;;;3.23;1.20;;;24.70;51.10;;;;;;7383889;19;20413;-48
2022/09/10 11:51:20;;;;;;;2.13;0.60;;;24.50;51.30;;;;;;7382196;19;20450;-48
2022/09/10 11:53:50;;;;;;;3.33;1.03;;;24.00;51.40;;;;;;7382394;19;21006;-48
2022/09/10 11:56:49;;;;;;;2.10;0.90;;;23.60;52.80;;;;;;7383452;19;20385;-48
2022/09/10 11:59:35;;;;;;;3.00;1.23;;;23.20;54.30;;;;;;7380425;19;20465;-48
2022/09/10 12:02:34;;;;;;;2.13;0.83;;;23.10;55.30;;;;;;7380681;19;20440;-48
2022/09/10 12:05:13;;;;;;;3.37;1.60;;;23.10;55.40;;;;;;7383999;19;20387;-48
2022/09/10 12:07:49;;;;;;;5.00;2.40;;;23.00;55.80;;;;;;7388943;19;20425;-48
2022/09/10 12:10:27;;;;;;;2.40;1.53;;;23.30;56.00;;;;;;7388185;19;20387;-48
2022/09/10 12:12:57;;;;;;;1.73;1.20;;;23.40;56.60;;;;;;7389491;19;20443;-48
2022/09/10 12:15:29;;;;;;;3.00;0.80;;;23.50;57.70;;;;;;7385221;19;20725;-48
2022/09/10 12:18:05;;;;;;;1.87;1.00;;;23.50;58.40;;;;;;7389828;19;20376;-48
2022/09/10 12:20:41;;;;;;;2.07;1.00;;;23.60;57.80;;;;;;7389456;19;21611;-55
2022/09/10 12:23:19;;;;;;;1.33;0.90;;;23.60;55.50;;;;;;7389153;19;20376;-57
2022/09/10 12:25:59;;;;;;;2.33;1.03;;;23.60;56.20;;;;;;7390989;19;20390;-55
2022/09/10 12:28:58;;;;;;;3.57;0.80;;;23.40;55.20;;;;;;7387565;19;20394;-56
2022/09/10 12:31:31;;;;;;;1.53;0.77;;;22.90;55.00;;;;;;7387319;19;20389;-56
2022/09/10 12:34:21;;;;;;;1.27;0.67;;;22.80;54.90;;;;;;7388482;19;21050;-56
2022/09/10 12:37:26;;;;;;;1.50;0.70;;;22.50;55.40;;;;;;7387829;19;20368;-55
2022/09/10 12:40:27;;;;;;;1.00;0.70;;;22.40;55.70;;;;;;7389183;19;20390;-55
2022/09/10 12:43:00;;;;;;;1.00;0.77;;;22.60;56.10;;;;;;7388258;19;20376;-55
2022/09/10 12:46:05;;;;;;;1.47;0.60;;;22.80;55.30;;;;;;7387799;19;20372;-56
2022/09/10 12:48:36;;;;;;;4.33;1.17;;;22.80;55.50;;;;;;7389315;19;20468;-55
2022/09/10 12:51:22;;;;;;;2.07;1.20;;;22.70;55.80;;;;;;7386932;19;20368;-55
2022/09/10 12:54:13;;;;;;;2.67;0.80;;;22.80;55.80;;;;;;7390159;19;20380;-56
2022/09/10 12:57:13;;;;;;;3.67;0.63;;;22.60;55.90;;;;;;7389505;19;20388;-56
2022/09/10 13:00:15;;;;;;;6.53;1.07;;;22.40;55.60;;;;;;7387591;19;20762;-55
2022/09/10 13:02:52;;;;;;;1.50;0.63;;;22.20;55.60;;;;;;7385987;19;20412;-55
2022/09/10 13:05:31;;;;;;;1.43;0.70;;;22.20;56.40;;;;;;7389130;19;20380;-55
2022/09/10 13:08:13;;;;;;;1.60;0.80;;;22.20;56.10;;;;;;7388459;19;20388;-55
2022/09/10 13:10:44;;;;;;;4.40;1.10;;;22.30;56.40;;;;;;7386049;19;20825;-55
2022/09/10 13:13:34;;;;;;;2.70;0.70;;;22.70;56.10;;;;;;7386501;19;20419;-55
2022/09/10 13:16:04;;;;;;;1.57;0.80;;;23.60;54.20;;;;;;7386952;19;20392;-55
2022/09/10 13:18:35;;;;;;;1.50;0.80;;;24.00;52.60;;;;;;7356242;19;20419;-56
2022/09/10 13:21:38;;;;;;;1.70;0.90;;;24.20;52.00;;;;;;7388293;19;20376;-55
2022/09/10 13:24:38;;;;;;;1.43;0.80;;;24.30;52.20;;;;;;7389132;19;20387;-56
2022/09/10 13:27:21;;;;;;;2.97;1.00;;;24.20;52.00;;;;;;7388201;19;20953;-56
2022/09/10 13:29:55;;;;;;;3.17;1.00;;;23.80;52.20;;;;;;7385624;19;20387;-56